createdAt,value
2023-03-29T00:01:35.797Z,39.32
2023-03-29T00:04:04.709Z,39.63
2023-03-29T00:06:31.424Z,39.53
2023-03-29T00:08:57.885Z,39.58
2023-03-29T00:11:25.223Z,39.83
2023-03-29T00:13:52.051Z,39.91
2023-03-29T00:16:18.857Z,39.69
2023-03-29T00:18:45.372Z,40.66
2023-03-29T00:21:12.278Z,39.97
2023-03-29T00:23:38.871Z,40.21
2023-03-29T00:26:07.808Z,40.36
2023-03-29T00:28:34.661Z,39.69
2023-03-29T00:31:10.823Z,39.26
2023-03-29T00:33:38.625Z,38.35
2023-03-29T00:36:06.438Z,38.55
2023-03-29T00:38:33.175Z,38.22
2023-03-29T00:41:00.348Z,38.05
2023-03-29T00:43:27.525Z,37.80
2023-03-29T00:45:54.065Z,38.15
2023-03-29T00:48:27.517Z,38.31
2023-03-29T00:50:56.319Z,39.00
2023-03-29T00:53:34.898Z,38.05
2023-03-29T00:56:20.826Z,37.94
2023-03-29T00:59:13.055Z,38.26
2023-03-29T01:01:50.228Z,38.04
2023-03-29T01:04:25.427Z,38.03
2023-03-29T01:07:02.993Z,37.85
2023-03-29T01:09:35.443Z,38.40
2023-03-29T01:12:09.837Z,38.30
2023-03-29T01:14:45.804Z,38.10
2023-03-29T01:17:12.331Z,38.20
2023-03-29T01:19:51.868Z,38.09
2023-03-29T01:22:33.586Z,38.30
2023-03-29T01:25:34.582Z,38.71
2023-03-29T01:28:13.373Z,38.60
2023-03-29T01:30:48.203Z,38.46
2023-03-29T01:33:20.940Z,38.54
2023-03-29T01:36:24.450Z,39.19
2023-03-29T01:38:57.351Z,41.41
2023-03-29T01:41:35.576Z,40.50
2023-03-29T01:44:11.497Z,41.48
2023-03-29T01:46:47.852Z,40.79
2023-03-29T01:49:29.430Z,40.59
2023-03-29T01:52:06.474Z,40.96
2023-03-29T01:54:44.792Z,41.18
2023-03-29T01:57:12.467Z,42.05
2023-03-29T01:59:43.672Z,40.88
2023-03-29T02:02:15.846Z,39.10
2023-03-29T02:04:48.894Z,38.98
2023-03-29T02:07:19.166Z,38.45
2023-03-29T02:09:49.323Z,37.90
2023-03-29T02:12:17.077Z,38.36
2023-03-29T02:14:43.622Z,38.51
2023-03-29T02:17:22.565Z,37.80
2023-03-29T02:20:10.248Z,37.62
2023-03-29T02:22:46.716Z,36.87
2023-03-29T02:25:13.543Z,36.82
2023-03-29T02:27:40.217Z,36.55
2023-03-29T02:30:10.025Z,36.85
2023-03-29T02:33:14.848Z,38.60
2023-03-29T02:35:53.908Z,38.41
2023-03-29T02:38:23.516Z,39.82
2023-03-29T02:40:50.041Z,40.89
2023-03-29T02:43:17.118Z,42.02
2023-03-29T02:45:45.758Z,41.94
2023-03-29T02:48:17.953Z,40.60
2023-03-29T02:50:49.364Z,41.37
2023-03-29T02:53:20.511Z,39.89
2023-03-29T02:55:47.029Z,40.44
2023-03-29T02:58:14.800Z,39.43
2023-03-29T03:00:47.253Z,38.56
2023-03-29T03:03:14.898Z,38.89
2023-03-29T03:05:41.424Z,38.09
2023-03-29T03:08:07.888Z,38.41
2023-03-29T03:10:35.737Z,38.61
2023-03-29T03:13:02.790Z,38.41
2023-03-29T03:15:29.294Z,37.95
2023-03-29T03:17:55.749Z,37.75
2023-03-29T03:20:22.207Z,36.95
2023-03-29T03:22:49.453Z,37.07
2023-03-29T03:25:17.762Z,37.31
2023-03-29T03:27:44.346Z,36.82
2023-03-29T03:30:11.510Z,36.22
2023-03-29T03:32:38.152Z,36.43
2023-03-29T03:35:06.008Z,36.34
2023-03-29T03:37:32.569Z,35.65
2023-03-29T03:39:59.100Z,36.16
2023-03-29T03:42:28.441Z,36.46
2023-03-29T03:44:55.580Z,36.30
2023-03-29T03:47:22.896Z,36.18
2023-03-29T03:49:49.414Z,36.30
2023-03-29T03:52:15.956Z,36.96
2023-03-29T03:54:42.449Z,36.84
2023-03-29T03:57:09.015Z,37.52
2023-03-29T03:59:35.593Z,37.45
2023-03-29T04:02:02.118Z,37.91
2023-03-29T04:04:28.613Z,37.88
2023-03-29T04:06:55.126Z,37.61
2023-03-29T04:09:24.160Z,38.03
2023-03-29T04:11:50.718Z,39.53
2023-03-29T04:14:17.192Z,39.92
2023-03-29T04:16:43.778Z,41.07
2023-03-29T04:19:10.231Z,41.22
2023-03-29T04:21:36.744Z,41.18
2023-03-29T04:24:03.334Z,41.87
2023-03-29T04:26:29.832Z,42.69
2023-03-29T04:28:56.439Z,42.23
2023-03-29T04:31:23.061Z,42.45
2023-03-29T04:33:49.574Z,42.85
2023-03-29T04:36:16.153Z,43.51
2023-03-29T04:38:47.422Z,43.93
2023-03-29T04:41:14.787Z,43.91
2023-03-29T04:43:41.285Z,44.22
2023-03-29T04:46:07.949Z,44.29
2023-03-29T04:48:34.453Z,44.15
2023-03-29T04:51:01.074Z,44.52
2023-03-29T04:53:27.736Z,43.76
2023-03-29T04:55:54.182Z,44.62
2023-03-29T04:58:22.165Z,44.51
2023-03-29T05:00:50.221Z,46.40
2023-03-29T05:03:16.829Z,48.80
2023-03-29T05:05:43.289Z,49.04
2023-03-29T05:08:09.799Z,50.52
2023-03-29T05:10:37.149Z,51.20
2023-03-29T05:13:03.631Z,49.06
2023-03-29T05:15:31.001Z,47.33
2023-03-29T05:17:57.580Z,47.05
2023-03-29T05:20:25.275Z,46.08
2023-03-29T05:22:51.862Z,48.08
2023-03-29T05:25:18.363Z,47.10
2023-03-29T05:27:45.005Z,45.76
2023-03-29T05:30:13.813Z,45.24
2023-03-29T05:32:40.572Z,44.35
2023-03-29T05:35:07.452Z,44.52
2023-03-29T05:37:34.317Z,43.92
2023-03-29T05:40:05.965Z,43.85
2023-03-29T05:42:32.852Z,43.19
2023-03-29T05:44:59.442Z,43.25
2023-03-29T05:47:25.956Z,43.51
2023-03-29T05:49:52.523Z,42.92
2023-03-29T05:52:19.036Z,42.79
2023-03-29T05:54:45.526Z,42.31
2023-03-29T05:57:12.092Z,42.35
2023-03-29T05:59:38.620Z,42.84
2023-03-29T06:02:05.241Z,42.25
2023-03-29T06:04:31.871Z,40.78
2023-03-29T06:06:58.546Z,39.97
2023-03-29T06:09:25.029Z,39.56
2023-03-29T06:11:51.547Z,40.18
2023-03-29T06:14:18.028Z,38.95
2023-03-29T06:16:44.585Z,39.32
2023-03-29T06:19:11.077Z,38.20
2023-03-29T06:21:37.569Z,38.31
2023-03-29T06:24:04.402Z,37.72
2023-03-29T06:26:30.933Z,38.20
2023-03-29T06:28:57.553Z,39.18
2023-03-29T06:31:24.069Z,38.33
2023-03-29T06:33:50.577Z,38.65
2023-03-29T06:36:17.058Z,38.94
2023-03-29T06:38:43.863Z,38.86
2023-03-29T06:41:10.401Z,39.42
2023-03-29T06:43:37.559Z,39.26
2023-03-29T06:46:04.353Z,39.70
2023-03-29T06:48:30.932Z,39.60
2023-03-29T06:50:57.401Z,39.81
2023-03-29T06:53:23.858Z,39.83
2023-03-29T06:55:51.008Z,40.14
2023-03-29T06:58:17.520Z,40.18
2023-03-29T07:00:44.020Z,40.93
2023-03-29T07:03:10.531Z,40.30
2023-03-29T07:05:37.216Z,40.44
2023-03-29T07:08:03.715Z,40.36
2023-03-29T07:10:42.953Z,40.46
2023-03-29T07:13:11.015Z,40.63
2023-03-29T07:15:37.600Z,40.56
2023-03-29T07:18:04.126Z,39.95
2023-03-29T07:20:31.814Z,40.42
2023-03-29T07:22:58.394Z,39.89
2023-03-29T07:25:26.590Z,39.37
2023-03-29T07:27:53.595Z,39.64
2023-03-29T07:30:24.079Z,39.02
2023-03-29T07:32:51.527Z,39.63
2023-03-29T07:35:18.417Z,38.96
2023-03-29T07:37:45.575Z,38.64
2023-03-29T07:40:15.784Z,40.66
2023-03-29T07:42:43.933Z,41.33
2023-03-29T07:45:11.642Z,41.23
2023-03-29T07:47:38.157Z,41.47
2023-03-29T07:50:05.140Z,42.52
2023-03-29T07:52:31.643Z,42.00
2023-03-29T07:54:58.223Z,42.83
2023-03-29T07:57:25.946Z,42.88
2023-03-29T07:59:53.789Z,42.74
2023-03-29T08:02:20.386Z,42.13
2023-03-29T08:04:47.642Z,42.47
2023-03-29T08:07:17.647Z,43.05
2023-03-29T08:09:45.417Z,42.59
2023-03-29T08:12:12.006Z,41.99
2023-03-29T08:14:38.584Z,41.93
2023-03-29T08:17:07.468Z,41.51
2023-03-29T08:19:34.296Z,41.78
2023-03-29T08:22:00.757Z,39.86
2023-03-29T08:24:27.260Z,39.36
2023-03-29T08:26:53.788Z,38.37
2023-03-29T08:29:20.344Z,38.06
2023-03-29T08:31:46.821Z,38.09
2023-03-29T08:34:13.836Z,37.84
2023-03-29T08:36:40.353Z,37.15
2023-03-29T08:39:06.973Z,37.14
2023-03-29T08:42:00.511Z,36.54
2023-03-29T08:44:45.319Z,36.96
2023-03-29T08:47:33.387Z,36.07
2023-03-29T08:49:59.961Z,35.57
2023-03-29T08:52:45.291Z,35.40
2023-03-29T08:55:20.263Z,34.95
2023-03-29T08:57:50.791Z,35.69
2023-03-29T09:00:25.513Z,35.18
2023-03-29T09:02:54.011Z,34.58
2023-03-29T09:05:29.300Z,35.92
2023-03-29T09:07:55.846Z,35.43
2023-03-29T09:10:39.412Z,35.62
2023-03-29T09:13:17.337Z,35.30
2023-03-29T09:15:49.285Z,35.02
2023-03-29T09:18:45.090Z,35.47
2023-03-29T09:21:41.823Z,35.46
2023-03-29T09:24:42.857Z,35.37
2023-03-29T09:27:15.424Z,35.29
2023-03-29T09:30:06.906Z,35.25
2023-03-29T09:32:49.541Z,36.23
2023-03-29T09:35:29.323Z,36.07
2023-03-29T09:37:56.824Z,37.29
2023-03-29T09:40:39.823Z,37.34
2023-03-29T09:43:11.984Z,38.16
2023-03-29T09:45:40.863Z,37.88
2023-03-29T09:48:19.455Z,38.84
2023-03-29T09:50:49.248Z,39.32
2023-03-29T09:53:16.089Z,39.27
2023-03-29T09:55:47.748Z,39.31
2023-03-29T09:58:27.511Z,39.51
2023-03-29T10:00:58.687Z,39.21
2023-03-29T10:03:28.548Z,39.60
2023-03-29T10:05:59.261Z,39.24
2023-03-29T10:08:29.333Z,39.54
2023-03-29T10:11:01.257Z,38.99
2023-03-29T10:13:31.150Z,39.15
2023-03-29T10:16:03.485Z,38.14
2023-03-29T10:18:38.844Z,38.65
2023-03-29T10:21:05.933Z,39.33
2023-03-29T10:23:36.933Z,38.65
2023-03-29T10:26:08.256Z,37.68
2023-03-29T10:28:37.933Z,36.72
2023-03-29T10:31:05.154Z,36.98
2023-03-29T10:33:35.085Z,36.89
2023-03-29T10:36:06.567Z,37.30
2023-03-29T10:38:36.257Z,36.61
2023-03-29T10:41:08.760Z,36.98
2023-03-29T10:43:44.146Z,37.11
2023-03-29T10:46:18.810Z,36.97
2023-03-29T10:48:48.597Z,37.12
2023-03-29T10:51:16.981Z,36.79
2023-03-29T10:53:43.580Z,37.57
2023-03-29T10:56:42.277Z,37.69
2023-03-29T10:59:27.281Z,38.95
2023-03-29T11:02:53.342Z,41.44
2023-03-29T11:05:41.240Z,42.51
2023-03-29T11:08:25.192Z,42.08
2023-03-29T11:11:29.708Z,42.70
2023-03-29T11:14:16.940Z,42.14
2023-03-29T11:17:07.773Z,43.95
2023-03-29T11:19:57.233Z,44.70
2023-03-29T11:22:58.769Z,43.45
2023-03-29T11:25:26.681Z,42.87
2023-03-29T11:28:14.611Z,42.99
2023-03-29T11:30:57.331Z,42.38
2023-03-29T11:34:01.392Z,41.75
2023-03-29T11:36:39.910Z,42.49
2023-03-29T11:39:30.346Z,42.42
2023-03-29T11:42:12.167Z,42.64
2023-03-29T11:44:43.788Z,42.89
2023-03-29T11:47:19.832Z,42.21
2023-03-29T11:50:03.363Z,42.79
2023-03-29T11:52:48.746Z,41.11
2023-03-29T11:55:22.534Z,42.68
2023-03-29T11:58:18.617Z,42.78
2023-03-29T12:01:01.660Z,42.65
2023-03-29T12:03:41.558Z,41.67
2023-03-29T12:06:21.564Z,42.50
2023-03-29T12:09:07.754Z,42.31
2023-03-29T12:12:02.045Z,40.88
2023-03-29T12:15:13.384Z,38.92
2023-03-29T12:17:51.593Z,39.07
2023-03-29T12:20:23.834Z,38.41
2023-03-29T12:22:50.613Z,37.89
2023-03-29T12:25:24.905Z,38.18
2023-03-29T12:28:20.822Z,39.77
2023-03-29T12:31:00.505Z,39.44
2023-03-29T12:33:43.887Z,39.37
2023-03-29T12:36:47.379Z,37.54
2023-03-29T12:39:18.220Z,36.94
2023-03-29T12:41:45.844Z,35.91
2023-03-29T12:44:16.419Z,35.34
2023-03-29T12:46:44.132Z,33.78
2023-03-29T12:49:23.627Z,33.71
2023-03-29T12:51:50.224Z,33.20
2023-03-29T12:54:22.509Z,32.66
2023-03-29T12:56:52.076Z,32.36
2023-03-29T12:59:39.810Z,32.25
2023-03-29T13:02:12.433Z,31.93
2023-03-29T13:04:54.818Z,31.84
2023-03-29T13:07:24.227Z,31.80
2023-03-29T13:09:56.790Z,31.58
2023-03-29T13:12:36.175Z,31.94
2023-03-29T13:15:16.463Z,32.00
2023-03-29T13:18:19.399Z,31.59
2023-03-29T13:20:58.815Z,32.01
2023-03-29T13:24:00.337Z,31.46
2023-03-29T13:26:57.428Z,31.46
2023-03-29T13:29:44.585Z,30.99
2023-03-29T13:32:31.806Z,30.39
2023-03-29T13:35:22.456Z,29.63
2023-03-29T13:38:04.231Z,29.86
2023-03-29T13:40:32.604Z,29.54
2023-03-29T13:43:18.815Z,29.94
2023-03-29T13:45:57.678Z,29.57
2023-03-29T13:48:36.443Z,29.32
2023-03-29T13:51:02.881Z,29.70
2023-03-29T13:53:39.297Z,29.72
2023-03-29T13:56:10.778Z,29.33
2023-03-29T13:58:43.119Z,28.60
2023-03-29T14:01:53.012Z,28.65
2023-03-29T14:04:25.302Z,28.30
2023-03-29T14:06:56.055Z,27.35
2023-03-29T14:09:29.608Z,27.50
2023-03-29T14:11:58.956Z,27.66
2023-03-29T14:14:29.839Z,27.21
2023-03-29T14:16:57.101Z,27.45
2023-03-29T14:19:31.625Z,27.39
2023-03-29T14:22:01.155Z,26.94
2023-03-29T14:24:37.420Z,26.57
2023-03-29T14:27:06.363Z,26.37
2023-03-29T14:29:34.932Z,25.84
2023-03-29T14:32:13.763Z,26.38
2023-03-29T14:34:40.773Z,26.31
2023-03-29T14:37:10.044Z,26.51
2023-03-29T14:39:37.376Z,27.54
2023-03-29T14:42:10.370Z,27.53
2023-03-29T14:44:36.911Z,27.04
2023-03-29T14:47:03.816Z,27.35
2023-03-29T14:49:32.147Z,27.34
2023-03-29T14:51:59.176Z,27.27
2023-03-29T14:54:29.851Z,27.38
2023-03-29T14:56:56.470Z,27.77
2023-03-29T14:59:35.898Z,28.28
2023-03-29T15:02:02.685Z,28.17
2023-03-29T15:04:36.044Z,28.66
2023-03-29T15:07:04.399Z,29.19
2023-03-29T15:09:34.629Z,29.20
2023-03-29T15:12:03.239Z,28.73
2023-03-29T15:14:33.291Z,28.27
2023-03-29T15:17:06.545Z,28.52
2023-03-29T15:19:33.895Z,29.40
2023-03-29T15:22:04.539Z,30.47
2023-03-29T15:24:33.553Z,29.54
2023-03-29T15:27:03.948Z,30.26
2023-03-29T15:29:36.009Z,29.82
2023-03-29T15:32:02.895Z,29.70
2023-03-29T15:34:31.654Z,29.58
2023-03-29T15:37:00.566Z,29.80
2023-03-29T15:39:28.859Z,29.91
2023-03-29T15:41:57.733Z,30.20
2023-03-29T15:44:31.776Z,30.32
2023-03-29T15:46:58.384Z,29.70
2023-03-29T15:49:25.865Z,30.00
2023-03-29T15:51:53.869Z,30.03
2023-03-29T15:54:21.597Z,30.42
2023-03-29T15:56:54.401Z,30.50
2023-03-29T15:59:21.763Z,30.95
2023-03-29T16:01:48.985Z,30.93
2023-03-29T16:04:18.369Z,30.97
2023-03-29T16:06:47.322Z,31.00
2023-03-29T16:09:14.423Z,31.00
2023-03-29T16:11:42.498Z,31.14
2023-03-29T16:14:25.051Z,31.46
2023-03-29T16:16:52.172Z,31.60
2023-03-29T16:19:19.501Z,31.37
2023-03-29T16:21:46.035Z,32.06
2023-03-29T16:24:18.588Z,31.54
2023-03-29T16:26:45.778Z,31.91
2023-03-29T16:29:12.637Z,32.01
2023-03-29T16:31:39.204Z,32.06
2023-03-29T16:34:06.151Z,31.99
2023-03-29T16:36:32.696Z,32.13
2023-03-29T16:38:59.946Z,32.10
2023-03-29T16:41:26.476Z,32.23
2023-03-29T16:43:53.253Z,32.22
2023-03-29T16:46:19.804Z,31.79
2023-03-29T16:48:46.324Z,32.25
2023-03-29T16:51:12.831Z,32.35
2023-03-29T16:53:39.529Z,32.75
2023-03-29T16:56:06.504Z,33.28
2023-03-29T16:58:33.060Z,33.50
2023-03-29T17:01:07.727Z,32.84
2023-03-29T17:03:35.684Z,33.71
2023-03-29T17:06:02.829Z,33.88
2023-03-29T17:08:29.953Z,33.84
2023-03-29T17:10:56.610Z,34.50
2023-03-29T17:13:23.750Z,34.85
2023-03-29T17:15:51.275Z,34.90
2023-03-29T17:18:18.752Z,36.42
2023-03-29T17:20:45.317Z,36.40
2023-03-29T17:23:12.332Z,38.28
2023-03-29T17:25:38.992Z,37.50
2023-03-29T17:28:05.586Z,36.76
2023-03-29T17:30:34.246Z,36.50
2023-03-29T17:33:01.013Z,36.29
2023-03-29T17:35:27.708Z,37.37
2023-03-29T17:37:54.357Z,36.87
2023-03-29T17:40:21.439Z,37.59
2023-03-29T17:42:47.969Z,37.54
2023-03-29T17:45:15.810Z,37.42
2023-03-29T17:47:42.275Z,37.75
2023-03-29T17:50:11.258Z,37.67
2023-03-29T17:52:37.865Z,37.89
2023-03-29T17:55:04.554Z,38.26
2023-03-29T17:57:31.015Z,38.46
2023-03-29T17:59:57.505Z,38.91
2023-03-29T18:02:24.578Z,38.45
2023-03-29T18:04:51.141Z,38.92
2023-03-29T18:07:17.651Z,39.13
2023-03-29T18:09:44.147Z,39.25
2023-03-29T18:12:10.645Z,39.90
2023-03-29T18:14:37.136Z,39.82
2023-03-29T18:17:03.681Z,40.05
2023-03-29T18:19:30.311Z,39.90
2023-03-29T18:21:56.798Z,40.11
2023-03-29T18:24:23.299Z,39.91
2023-03-29T18:26:49.794Z,39.87
2023-03-29T18:29:16.286Z,40.48
2023-03-29T18:31:42.953Z,40.59
2023-03-29T18:34:09.464Z,41.15
2023-03-29T18:36:35.925Z,40.92
2023-03-29T18:39:02.614Z,41.07
2023-03-29T18:41:29.090Z,40.74
2023-03-29T18:43:55.566Z,40.60
2023-03-29T18:46:22.217Z,42.98
2023-03-29T18:48:48.755Z,44.49
2023-03-29T18:51:15.271Z,44.20
2023-03-29T18:53:41.774Z,42.77
2023-03-29T18:56:08.948Z,42.49
2023-03-29T18:58:35.431Z,42.03
2023-03-29T19:01:03.737Z,41.44
2023-03-29T19:03:31.936Z,41.77
2023-03-29T19:05:58.586Z,41.65
2023-03-29T19:08:25.311Z,41.41
2023-03-29T19:10:53.104Z,41.30
2023-03-29T19:13:19.926Z,41.55
2023-03-29T19:15:46.520Z,41.44
2023-03-29T19:18:13.037Z,41.96
2023-03-29T19:20:39.534Z,41.39
2023-03-29T19:23:06.030Z,42.29
2023-03-29T19:25:32.590Z,44.69
2023-03-29T19:27:59.987Z,43.42
2023-03-29T19:30:26.591Z,42.49
2023-03-29T19:32:53.109Z,42.08
2023-03-29T19:35:20.203Z,42.41
2023-03-29T19:37:46.699Z,42.10
2023-03-29T19:40:13.381Z,41.85
2023-03-29T19:42:40.590Z,41.44
2023-03-29T19:45:08.478Z,41.73
2023-03-29T19:47:35.667Z,41.91
2023-03-29T19:50:02.606Z,41.71
2023-03-29T19:52:29.873Z,41.87
2023-03-29T19:54:57.146Z,43.02
2023-03-29T19:57:23.956Z,43.13
2023-03-29T19:59:51.023Z,45.59
2023-03-29T20:02:17.584Z,45.89
2023-03-29T20:04:44.377Z,44.24
2023-03-29T20:07:11.090Z,44.83
2023-03-29T20:09:37.622Z,44.64
2023-03-29T20:12:04.721Z,44.00
2023-03-29T20:14:31.394Z,44.23
2023-03-29T20:16:57.896Z,43.67
2023-03-29T20:19:24.419Z,44.90
2023-03-29T20:21:52.549Z,44.18
2023-03-29T20:24:19.012Z,44.21
2023-03-29T20:26:45.495Z,44.18
2023-03-29T20:29:12.003Z,44.16
2023-03-29T20:31:38.639Z,44.61
2023-03-29T20:34:05.164Z,44.40
2023-03-29T20:36:31.749Z,44.51
2023-03-29T20:38:58.484Z,44.66
2023-03-29T20:41:25.467Z,44.96
2023-03-29T20:43:52.144Z,44.58
2023-03-29T20:46:18.755Z,44.96
2023-03-29T20:48:45.280Z,45.61
2023-03-29T20:51:12.435Z,45.54
2023-03-29T20:53:38.926Z,44.42
2023-03-29T20:56:05.551Z,44.13
2023-03-29T20:58:32.072Z,44.95
2023-03-29T21:00:58.531Z,44.88
2023-03-29T21:03:25.185Z,44.46
2023-03-29T21:05:54.842Z,44.96
2023-03-29T21:08:21.459Z,44.98
2023-03-29T21:10:47.945Z,45.41
2023-03-29T21:13:14.462Z,45.24
2023-03-29T21:15:41.016Z,45.77
2023-03-29T21:18:07.546Z,46.31
2023-03-29T21:20:36.411Z,46.22
2023-03-29T21:23:02.982Z,47.01
2023-03-29T21:25:29.464Z,47.75
2023-03-29T21:27:55.960Z,47.40
2023-03-29T21:30:22.450Z,46.69
2023-03-29T21:32:48.922Z,47.51
2023-03-29T21:35:15.491Z,47.64
2023-03-29T21:37:41.987Z,48.91
2023-03-29T21:40:08.838Z,48.82
2023-03-29T21:42:35.373Z,47.43
2023-03-29T21:45:02.282Z,46.61
2023-03-29T21:47:28.875Z,46.94
2023-03-29T21:49:55.508Z,46.17
2023-03-29T21:52:21.987Z,46.79
2023-03-29T21:54:48.485Z,46.73
2023-03-29T21:57:15.033Z,47.02
2023-03-29T21:59:41.524Z,46.18
2023-03-29T22:02:08.109Z,46.63
2023-03-29T22:04:37.153Z,47.00
2023-03-29T22:07:05.229Z,46.55
2023-03-29T22:09:33.233Z,45.90
2023-03-29T22:11:59.970Z,45.63
2023-03-29T22:14:26.506Z,45.72
2023-03-29T22:16:53.035Z,45.42
2023-03-29T22:19:19.539Z,44.76
2023-03-29T22:21:46.040Z,44.72
2023-03-29T22:24:12.515Z,44.54
2023-03-29T22:26:38.962Z,44.60
2023-03-29T22:29:05.450Z,44.69
2023-03-29T22:31:32.629Z,45.43
2023-03-29T22:33:59.178Z,45.11
2023-03-29T22:36:28.592Z,44.83
2023-03-29T22:38:55.867Z,44.35
2023-03-29T22:41:24.657Z,44.51
2023-03-29T22:43:52.576Z,44.38
2023-03-29T22:46:19.739Z,44.79
2023-03-29T22:48:47.130Z,45.40
2023-03-29T22:51:14.280Z,44.97
2023-03-29T22:53:40.787Z,45.03
2023-03-29T22:56:07.939Z,44.78
2023-03-29T22:58:35.614Z,44.63
2023-03-29T23:01:02.225Z,45.10
2023-03-29T23:03:28.857Z,45.06
2023-03-29T23:05:58.241Z,44.92
2023-03-29T23:08:25.087Z,44.97
2023-03-29T23:10:52.393Z,45.16
2023-03-29T23:13:19.650Z,45.14
2023-03-29T23:15:48.522Z,44.99
2023-03-29T23:18:16.464Z,45.34
2023-03-29T23:20:42.995Z,45.41
2023-03-29T23:23:09.815Z,45.23
2023-03-29T23:25:36.525Z,44.78
2023-03-29T23:28:03.869Z,44.92
2023-03-29T23:30:30.421Z,45.55
2023-03-29T23:32:56.905Z,45.52
2023-03-29T23:35:23.420Z,45.52
2023-03-29T23:37:49.951Z,45.64
2023-03-29T23:40:16.493Z,45.95
2023-03-29T23:42:45.408Z,46.44
2023-03-29T23:45:15.129Z,47.33
2023-03-29T23:47:43.364Z,46.58
2023-03-29T23:50:12.396Z,46.89
2023-03-29T23:52:40.698Z,47.68
2023-03-29T23:55:12.235Z,47.38
2023-03-29T23:57:38.722Z,47.70
